Hampton Falls, New Hampshire
Current Conditions -  °F | °C
As of 6:58 PM on Wednesday 28 Jan 2015 (Local Time) from KPSM Reporting Station
Clear Clear  
Wind Chill: -12°   Ceiling: Unl
Heat Index: -7°   Visibility: 10mi
Dew Point: -14°   Wind: 7mph
Humidity: 57%   Direction: 280°W
Pressure: 30.1"   Gusts: NA
Location:  42.92°N, 70.86°W
Report Text: KPSM 282358Z 28006KT 10SM CLR M07/M14 A3010 RMK AO2A SLP198 4/021 T10701143 11042 21070 52035
Loading
Personal Weather Stations






























Interactive Weather Map New forecast layout! Learn more

10-Day Weather Forecast

Advertisements
Track Severe Weather on mobile